sensor_id;sensor_type;location;lat;lon;timestamp;P1;durP1;ratioP1;P2;durP2;ratioP2
40074;SDS011;26529;51.530;11.754;2022-11-21T00:00:03;4.43;;;3.30;;
40074;SDS011;26529;51.530;11.754;2022-11-21T00:02:31;4.43;;;3.30;;
40074;SDS011;26529;51.530;11.754;2022-11-21T00:04:57;6.32;;;3.33;;
40074;SDS011;26529;51.530;11.754;2022-11-21T00:07:22;4.13;;;2.53;;
40074;SDS011;26529;51.530;11.754;2022-11-21T00:09:48;5.68;;;3.00;;
40074;SDS011;26529;51.530;11.754;2022-11-21T00:12:15;4.80;;;2.72;;
40074;SDS011;26529;51.530;11.754;2022-11-21T00:14:40;4.35;;;3.38;;
40074;SDS011;26529;51.530;11.754;2022-11-21T00:17:06;3.85;;;3.30;;
40074;SDS011;26529;51.530;11.754;2022-11-21T00:19:32;3.85;;;2.67;;
40074;SDS011;26529;51.530;11.754;2022-11-21T00:21:57;3.72;;;2.67;;
40074;SDS011;26529;51.530;11.754;2022-11-21T00:24:23;3.83;;;2.90;;
40074;SDS011;26529;51.530;11.754;2022-11-21T00:26:48;4.18;;;2.80;;
40074;SDS011;26529;51.530;11.754;2022-11-21T00:29:14;3.50;;;2.95;;
40074;SDS011;26529;51.530;11.754;2022-11-21T00:31:39;4.38;;;2.85;;
40074;SDS011;26529;51.530;11.754;2022-11-21T00:34:05;7.15;;;3.58;;
40074;SDS011;26529;51.530;11.754;2022-11-21T00:36:30;3.33;;;2.75;;
40074;SDS011;26529;51.530;11.754;2022-11-21T00:38:56;3.55;;;2.40;;
40074;SDS011;26529;51.530;11.754;2022-11-21T00:41:22;3.92;;;3.28;;
40074;SDS011;26529;51.530;11.754;2022-11-21T00:43:47;8.25;;;3.38;;
40074;SDS011;26529;51.530;11.754;2022-11-21T00:46:12;4.18;;;2.85;;
40074;SDS011;26529;51.530;11.754;2022-11-21T00:48:38;4.63;;;2.88;;
40074;SDS011;26529;51.530;11.754;2022-11-21T00:53:42;3.95;;;3.03;;
40074;SDS011;26529;51.530;11.754;2022-11-21T00:56:08;3.63;;;3.10;;
40074;SDS011;26529;51.530;11.754;2022-11-21T00:58:33;3.38;;;2.90;;
40074;SDS011;26529;51.530;11.754;2022-11-21T01:01:03;3.22;;;2.60;;
40074;SDS011;26529;51.530;11.754;2022-11-21T01:03:31;3.90;;;2.65;;
40074;SDS011;26529;51.530;11.754;2022-11-21T01:06:05;4.25;;;2.75;;
40074;SDS011;26529;51.530;11.754;2022-11-21T01:08:37;3.28;;;2.45;;
40074;SDS011;26529;51.530;11.754;2022-11-21T01:11:14;3.13;;;2.63;;
40074;SDS011;26529;51.530;11.754;2022-11-21T01:13:41;3.53;;;2.67;;
40074;SDS011;26529;51.530;11.754;2022-11-21T01:16:08;3.70;;;2.22;;
40074;SDS011;26529;51.530;11.754;2022-11-21T01:18:35;3.25;;;2.67;;
40074;SDS011;26529;51.530;11.754;2022-11-21T01:21:02;3.35;;;2.67;;
40074;SDS011;26529;51.530;11.754;2022-11-21T01:23:31;3.70;;;2.92;;
40074;SDS011;26529;51.530;11.754;2022-11-21T01:26:02;3.72;;;2.80;;
40074;SDS011;26529;51.530;11.754;2022-11-21T01:28:29;3.10;;;2.58;;
40074;SDS011;26529;51.530;11.754;2022-11-21T01:30:59;2.88;;;2.58;;
40074;SDS011;26529;51.530;11.754;2022-11-21T01:33:27;4.53;;;3.10;;
40074;SDS011;26529;51.530;11.754;2022-11-21T01:35:53;4.10;;;2.70;;
40074;SDS011;26529;51.530;11.754;2022-11-21T01:38:18;4.30;;;2.70;;
40074;SDS011;26529;51.530;11.754;2022-11-21T01:40:44;3.25;;;2.72;;
40074;SDS011;26529;51.530;11.754;2022-11-21T01:43:13;3.33;;;2.78;;
40074;SDS011;26529;51.530;11.754;2022-11-21T01:48:17;3.97;;;2.85;;
40074;SDS011;26529;51.530;11.754;2022-11-21T01:50:43;3.20;;;2.85;;
40074;SDS011;26529;51.530;11.754;2022-11-21T01:53:09;2.97;;;2.60;;
40074;SDS011;26529;51.530;11.754;2022-11-21T01:55:35;4.55;;;2.70;;
40074;SDS011;26529;51.530;11.754;2022-11-21T01:58:01;2.90;;;2.53;;
40074;SDS011;26529;51.530;11.754;2022-11-21T02:00:28;4.47;;;2.70;;
40074;SDS011;26529;51.530;11.754;2022-11-21T02:03:00;3.35;;;2.75;;
40074;SDS011;26529;51.530;11.754;2022-11-21T02:05:29;3.42;;;3.13;;
40074;SDS011;26529;51.530;11.754;2022-11-21T02:07:58;3.33;;;2.92;;
40074;SDS011;26529;51.530;11.754;2022-11-21T02:10:38;4.88;;;3.13;;
40074;SDS011;26529;51.530;11.754;2022-11-21T02:13:11;4.80;;;2.97;;
40074;SDS011;26529;51.530;11.754;2022-11-21T02:15:37;5.90;;;2.75;;
40074;SDS011;26529;51.530;11.754;2022-11-21T02:18:04;3.90;;;2.55;;
40074;SDS011;26529;51.530;11.754;2022-11-21T02:20:33;2.97;;;2.60;;
40074;SDS011;26529;51.530;11.754;2022-11-21T02:23:06;2.83;;;2.50;;
40074;SDS011;26529;51.530;11.754;2022-11-21T02:25:39;2.80;;;2.20;;
40074;SDS011;26529;51.530;11.754;2022-11-21T02:28:07;2.63;;;2.40;;
40074;SDS011;26529;51.530;11.754;2022-11-21T02:30:36;3.05;;;2.30;;
40074;SDS011;26529;51.530;11.754;2022-11-21T02:33:03;2.95;;;2.40;;
40074;SDS011;26529;51.530;11.754;2022-11-21T02:35:29;3.80;;;2.20;;
40074;SDS011;26529;51.530;11.754;2022-11-21T02:37:58;2.67;;;2.47;;
40074;SDS011;26529;51.530;11.754;2022-11-21T02:40:30;2.67;;;2.47;;
40074;SDS011;26529;51.530;11.754;2022-11-21T02:45:54;2.72;;;2.53;;
40074;SDS011;26529;51.530;11.754;2022-11-21T02:48:20;2.78;;;2.58;;
40074;SDS011;26529;51.530;11.754;2022-11-21T02:50:46;2.80;;;2.58;;
40074;SDS011;26529;51.530;11.754;2022-11-21T02:53:13;2.83;;;2.40;;
40074;SDS011;26529;51.530;11.754;2022-11-21T02:55:40;3.33;;;2.55;;
40074;SDS011;26529;51.530;11.754;2022-11-21T02:58:05;3.15;;;2.78;;
40074;SDS011;26529;51.530;11.754;2022-11-21T03:00:32;3.28;;;2.38;;
40074;SDS011;26529;51.530;11.754;2022-11-21T03:02:58;2.60;;;2.40;;
40074;SDS011;26529;51.530;11.754;2022-11-21T03:05:24;2.75;;;2.40;;
40074;SDS011;26529;51.530;11.754;2022-11-21T03:07:49;3.15;;;2.85;;
40074;SDS011;26529;51.530;11.754;2022-11-21T03:10:15;2.53;;;2.30;;
40074;SDS011;26529;51.530;11.754;2022-11-21T03:12:41;2.47;;;2.28;;
40074;SDS011;26529;51.530;11.754;2022-11-21T03:15:08;2.95;;;2.47;;
40074;SDS011;26529;51.530;11.754;2022-11-21T03:17:35;3.30;;;2.70;;
40074;SDS011;26529;51.530;11.754;2022-11-21T03:20:01;2.95;;;2.65;;
40074;SDS011;26529;51.530;11.754;2022-11-21T03:22:27;2.75;;;2.55;;
40074;SDS011;26529;51.530;11.754;2022-11-21T03:24:53;2.45;;;2.08;;
40074;SDS011;26529;51.530;11.754;2022-11-21T03:27:18;3.45;;;2.78;;
40074;SDS011;26529;51.530;11.754;2022-11-21T03:29:44;3.60;;;2.83;;
40074;SDS011;26529;51.530;11.754;2022-11-21T03:32:10;2.78;;;2.47;;
40074;SDS011;26529;51.530;11.754;2022-11-21T03:34:35;2.45;;;2.25;;
40074;SDS011;26529;51.530;11.754;2022-11-21T03:37:01;2.47;;;2.28;;
40074;SDS011;26529;51.530;11.754;2022-11-21T03:39:27;2.50;;;2.30;;
40074;SDS011;26529;51.530;11.754;2022-11-21T03:41:54;2.97;;;2.30;;
40074;SDS011;26529;51.530;11.754;2022-11-21T03:44:19;2.75;;;2.45;;
40074;SDS011;26529;51.530;11.754;2022-11-21T03:46:45;2.83;;;2.38;;
40074;SDS011;26529;51.530;11.754;2022-11-21T03:49:11;2.50;;;2.30;;
40074;SDS011;26529;51.530;11.754;2022-11-21T03:51:38;3.05;;;2.42;;
40074;SDS011;26529;51.530;11.754;2022-11-21T03:54:04;3.08;;;2.70;;
40074;SDS011;26529;51.530;11.754;2022-11-21T03:56:30;2.58;;;2.13;;
40074;SDS011;26529;51.530;11.754;2022-11-21T03:58:57;2.72;;;2.22;;
40074;SDS011;26529;51.530;11.754;2022-11-21T04:01:23;2.72;;;2.30;;
40074;SDS011;26529;51.530;11.754;2022-11-21T04:03:49;2.85;;;2.42;;
40074;SDS011;26529;51.530;11.754;2022-11-21T04:06:16;2.30;;;2.10;;
40074;SDS011;26529;51.530;11.754;2022-11-21T04:08:44;2.63;;;2.00;;
40074;SDS011;26529;51.530;11.754;2022-11-21T04:11:09;2.75;;;2.25;;
40074;SDS011;26529;51.530;11.754;2022-11-21T04:13:35;3.33;;;2.17;;
40074;SDS011;26529;51.530;11.754;2022-11-21T04:16:01;2.28;;;1.90;;
40074;SDS011;26529;51.530;11.754;2022-11-21T04:18:27;2.30;;;2.10;;
40074;SDS011;26529;51.530;11.754;2022-11-21T04:21:00;2.03;;;1.83;;
40074;SDS011;26529;51.530;11.754;2022-11-21T04:23:28;2.78;;;2.22;;
40074;SDS011;26529;51.530;11.754;2022-11-21T04:25:53;2.22;;;2.03;;
40074;SDS011;26529;51.530;11.754;2022-11-21T04:28:19;2.38;;;2.17;;
40074;SDS011;26529;51.530;11.754;2022-11-21T04:30:46;2.65;;;2.22;;
40074;SDS011;26529;51.530;11.754;2022-11-21T04:33:12;2.42;;;2.22;;
40074;SDS011;26529;51.530;11.754;2022-11-21T04:35:39;2.60;;;2.40;;
40074;SDS011;26529;51.530;11.754;2022-11-21T04:38:05;2.25;;;2.05;;
40074;SDS011;26529;51.530;11.754;2022-11-21T04:40:30;2.85;;;2.20;;
40074;SDS011;26529;51.530;11.754;2022-11-21T04:42:56;2.53;;;2.33;;
40074;SDS011;26529;51.530;11.754;2022-11-21T04:45:22;3.28;;;2.33;;
40074;SDS011;26529;51.530;11.754;2022-11-21T04:47:47;2.20;;;2.00;;
40074;SDS011;26529;51.530;11.754;2022-11-21T04:50:15;2.72;;;1.85;;
40074;SDS011;26529;51.530;11.754;2022-11-21T04:52:41;2.85;;;2.30;;
40074;SDS011;26529;51.530;11.754;2022-11-21T04:55:07;2.10;;;1.90;;
40074;SDS011;26529;51.530;11.754;2022-11-21T04:57:33;2.13;;;1.70;;
40074;SDS011;26529;51.530;11.754;2022-11-21T04:59:59;3.55;;;1.75;;
40074;SDS011;26529;51.530;11.754;2022-11-21T05:02:24;2.38;;;1.98;;
40074;SDS011;26529;51.530;11.754;2022-11-21T05:04:50;2.25;;;2.05;;
40074;SDS011;26529;51.530;11.754;2022-11-21T05:07:16;2.25;;;2.05;;
40074;SDS011;26529;51.530;11.754;2022-11-21T05:09:42;2.30;;;2.03;;
40074;SDS011;26529;51.530;11.754;2022-11-21T05:12:09;2.25;;;2.05;;
40074;SDS011;26529;51.530;11.754;2022-11-21T05:14:55;2.40;;;2.10;;
40074;SDS011;26529;51.530;11.754;2022-11-21T05:17:21;2.28;;;2.08;;
40074;SDS011;26529;51.530;11.754;2022-11-21T05:19:48;2.45;;;2.25;;
40074;SDS011;26529;51.530;11.754;2022-11-21T05:22:13;3.03;;;2.50;;
40074;SDS011;26529;51.530;11.754;2022-11-21T05:24:40;2.08;;;1.88;;
40074;SDS011;26529;51.530;11.754;2022-11-21T05:27:07;2.42;;;2.17;;
40074;SDS011;26529;51.530;11.754;2022-11-21T05:29:34;2.72;;;2.03;;
40074;SDS011;26529;51.530;11.754;2022-11-21T05:32:01;2.15;;;1.83;;
40074;SDS011;26529;51.530;11.754;2022-11-21T05:34:27;2.22;;;2.03;;
40074;SDS011;26529;51.530;11.754;2022-11-21T05:36:55;2.58;;;2.22;;
40074;SDS011;26529;51.530;11.754;2022-11-21T05:39:27;1.98;;;1.67;;
40074;SDS011;26529;51.530;11.754;2022-11-21T05:41:58;1.67;;;1.55;;
40074;SDS011;26529;51.530;11.754;2022-11-21T05:44:24;2.60;;;2.13;;
40074;SDS011;26529;51.530;11.754;2022-11-21T05:46:51;3.38;;;1.95;;
40074;SDS011;26529;51.530;11.754;2022-11-21T05:49:18;1.75;;;1.65;;
40074;SDS011;26529;51.530;11.754;2022-11-21T05:51:44;2.33;;;2.13;;
40074;SDS011;26529;51.530;11.754;2022-11-21T05:54:11;2.42;;;2.15;;
40074;SDS011;26529;51.530;11.754;2022-11-21T05:56:40;2.15;;;1.95;;
40074;SDS011;26529;51.530;11.754;2022-11-21T05:59:07;1.90;;;1.70;;
40074;SDS011;26529;51.530;11.754;2022-11-21T06:01:34;1.80;;;1.70;;
40074;SDS011;26529;51.530;11.754;2022-11-21T06:04:21;2.13;;;1.90;;
40074;SDS011;26529;51.530;11.754;2022-11-21T06:06:46;2.83;;;1.90;;
40074;SDS011;26529;51.530;11.754;2022-11-21T06:09:13;4.03;;;2.25;;
40074;SDS011;26529;51.530;11.754;2022-11-21T06:11:39;2.10;;;1.90;;
40074;SDS011;26529;51.530;11.754;2022-11-21T06:14:07;2.42;;;2.20;;
40074;SDS011;26529;51.530;11.754;2022-11-21T06:16:32;2.83;;;1.95;;
40074;SDS011;26529;51.530;11.754;2022-11-21T06:18:59;2.03;;;1.63;;
40074;SDS011;26529;51.530;11.754;2022-11-21T06:21:26;2.38;;;2.08;;
40074;SDS011;26529;51.530;11.754;2022-11-21T06:23:54;2.05;;;1.80;;
40074;SDS011;26529;51.530;11.754;2022-11-21T06:26:22;3.83;;;1.75;;
40074;SDS011;26529;51.530;11.754;2022-11-21T06:28:49;4.88;;;2.53;;
40074;SDS011;26529;51.530;11.754;2022-11-21T06:31:16;4.00;;;2.40;;
40074;SDS011;26529;51.530;11.754;2022-11-21T06:33:43;4.78;;;2.17;;
40074;SDS011;26529;51.530;11.754;2022-11-21T06:36:10;4.60;;;1.52;;
40074;SDS011;26529;51.530;11.754;2022-11-21T06:38:39;4.53;;;2.67;;
40074;SDS011;26529;51.530;11.754;2022-11-21T06:43:38;4.75;;;2.42;;
40074;SDS011;26529;51.530;11.754;2022-11-21T06:46:04;4.30;;;2.10;;
40074;SDS011;26529;51.530;11.754;2022-11-21T06:48:31;11.13;;;2.60;;
40074;SDS011;26529;51.530;11.754;2022-11-21T06:50:57;8.63;;;2.40;;
40074;SDS011;26529;51.530;11.754;2022-11-21T06:53:23;6.45;;;2.30;;
40074;SDS011;26529;51.530;11.754;2022-11-21T06:55:48;8.13;;;2.72;;
40074;SDS011;26529;51.530;11.754;2022-11-21T06:58:14;7.15;;;2.90;;
40074;SDS011;26529;51.530;11.754;2022-11-21T07:00:39;9.70;;;2.53;;
40074;SDS011;26529;51.530;11.754;2022-11-21T07:03:05;9.20;;;2.40;;
40074;SDS011;26529;51.530;11.754;2022-11-21T07:05:31;5.47;;;2.50;;
40074;SDS011;26529;51.530;11.754;2022-11-21T07:07:58;4.85;;;2.78;;
40074;SDS011;26529;51.530;11.754;2022-11-21T07:10:24;6.45;;;2.47;;
40074;SDS011;26529;51.530;11.754;2022-11-21T07:12:50;7.43;;;2.75;;
40074;SDS011;26529;51.530;11.754;2022-11-21T07:15:34;4.70;;;2.42;;
40074;SDS011;26529;51.530;11.754;2022-11-21T07:18:00;6.85;;;2.80;;
40074;SDS011;26529;51.530;11.754;2022-11-21T07:20:26;5.65;;;2.40;;
40074;SDS011;26529;51.530;11.754;2022-11-21T07:22:53;10.15;;;2.65;;
40074;SDS011;26529;51.530;11.754;2022-11-21T07:25:19;6.68;;;2.72;;
40074;SDS011;26529;51.530;11.754;2022-11-21T07:27:45;4.85;;;2.35;;
40074;SDS011;26529;51.530;11.754;2022-11-21T07:30:11;5.05;;;2.42;;
40074;SDS011;26529;51.530;11.754;2022-11-21T07:32:37;11.57;;;3.45;;
40074;SDS011;26529;51.530;11.754;2022-11-21T07:35:03;11.30;;;4.72;;
40074;SDS011;26529;51.530;11.754;2022-11-21T07:37:29;15.80;;;5.00;;
40074;SDS011;26529;51.530;11.754;2022-11-21T07:39:54;12.38;;;4.97;;
40074;SDS011;26529;51.530;11.754;2022-11-21T07:42:20;12.45;;;5.00;;
40074;SDS011;26529;51.530;11.754;2022-11-21T07:44:45;8.57;;;5.60;;
40074;SDS011;26529;51.530;11.754;2022-11-21T07:47:11;7.03;;;4.28;;
40074;SDS011;26529;51.530;11.754;2022-11-21T07:49:36;6.38;;;4.13;;
40074;SDS011;26529;51.530;11.754;2022-11-21T07:52:02;12.27;;;3.95;;
40074;SDS011;26529;51.530;11.754;2022-11-21T07:54:27;5.53;;;3.58;;
40074;SDS011;26529;51.530;11.754;2022-11-21T07:56:53;8.60;;;3.40;;
40074;SDS011;26529;51.530;11.754;2022-11-21T07:59:18;9.52;;;3.25;;
40074;SDS011;26529;51.530;11.754;2022-11-21T08:01:44;9.07;;;3.67;;
40074;SDS011;26529;51.530;11.754;2022-11-21T08:04:09;12.13;;;4.22;;
40074;SDS011;26529;51.530;11.754;2022-11-21T08:06:35;9.60;;;3.28;;
40074;SDS011;26529;51.530;11.754;2022-11-21T08:09:00;7.90;;;3.75;;
40074;SDS011;26529;51.530;11.754;2022-11-21T08:11:26;6.28;;;3.20;;
40074;SDS011;26529;51.530;11.754;2022-11-21T08:13:52;9.70;;;3.10;;
40074;SDS011;26529;51.530;11.754;2022-11-21T08:16:17;10.20;;;3.33;;
40074;SDS011;26529;51.530;11.754;2022-11-21T08:18:43;10.00;;;3.38;;
40074;SDS011;26529;51.530;11.754;2022-11-21T08:21:08;7.88;;;3.13;;
40074;SDS011;26529;51.530;11.754;2022-11-21T08:23:34;5.20;;;2.72;;
40074;SDS011;26529;51.530;11.754;2022-11-21T08:25:59;5.75;;;2.70;;
40074;SDS011;26529;51.530;11.754;2022-11-21T08:28:25;5.45;;;2.70;;
40074;SDS011;26529;51.530;11.754;2022-11-21T08:30:50;4.10;;;2.63;;
40074;SDS011;26529;51.530;11.754;2022-11-21T08:33:16;6.45;;;2.80;;
40074;SDS011;26529;51.530;11.754;2022-11-21T08:35:41;5.60;;;3.13;;
40074;SDS011;26529;51.530;11.754;2022-11-21T08:38:07;4.03;;;2.95;;
40074;SDS011;26529;51.530;11.754;2022-11-21T08:40:33;3.72;;;2.42;;
40074;SDS011;26529;51.530;11.754;2022-11-21T08:43:08;7.70;;;2.88;;
40074;SDS011;26529;51.530;11.754;2022-11-21T08:45:34;5.28;;;2.38;;
40074;SDS011;26529;51.530;11.754;2022-11-21T08:48:01;4.70;;;3.03;;
40074;SDS011;26529;51.530;11.754;2022-11-21T08:50:27;3.08;;;2.50;;
40074;SDS011;26529;51.530;11.754;2022-11-21T08:52:57;3.75;;;2.60;;
40074;SDS011;26529;51.530;11.754;2022-11-21T08:55:23;5.90;;;2.33;;
40074;SDS011;26529;51.530;11.754;2022-11-21T08:57:49;4.35;;;2.72;;
40074;SDS011;26529;51.530;11.754;2022-11-21T09:00:14;5.93;;;3.05;;
40074;SDS011;26529;51.530;11.754;2022-11-21T09:02:40;6.47;;;2.58;;
40074;SDS011;26529;51.530;11.754;2022-11-21T09:05:06;6.25;;;2.60;;
40074;SDS011;26529;51.530;11.754;2022-11-21T09:07:32;3.35;;;2.70;;
40074;SDS011;26529;51.530;11.754;2022-11-21T09:09:58;5.47;;;2.50;;
40074;SDS011;26529;51.530;11.754;2022-11-21T09:12:23;3.25;;;2.72;;
40074;SDS011;26529;51.530;11.754;2022-11-21T09:14:48;4.72;;;2.28;;
40074;SDS011;26529;51.530;11.754;2022-11-21T09:17:33;4.85;;;2.72;;
40074;SDS011;26529;51.530;11.754;2022-11-21T09:20:16;9.32;;;2.90;;
40074;SDS011;26529;51.530;11.754;2022-11-21T09:22:42;3.55;;;2.08;;
40074;SDS011;26529;51.530;11.754;2022-11-21T09:25:08;3.45;;;2.05;;
40074;SDS011;26529;51.530;11.754;2022-11-21T09:27:33;4.45;;;2.45;;
40074;SDS011;26529;51.530;11.754;2022-11-21T09:29:59;3.42;;;2.60;;
40074;SDS011;26529;51.530;11.754;2022-11-21T09:32:24;4.13;;;2.15;;
40074;SDS011;26529;51.530;11.754;2022-11-21T09:34:50;3.95;;;2.42;;
40074;SDS011;26529;51.530;11.754;2022-11-21T09:37:15;7.63;;;2.42;;
40074;SDS011;26529;51.530;11.754;2022-11-21T09:39:41;5.75;;;2.65;;
40074;SDS011;26529;51.530;11.754;2022-11-21T09:47:34;2.97;;;2.53;;
40074;SDS011;26529;51.530;11.754;2022-11-21T09:50:03;5.68;;;2.80;;
40074;SDS011;26529;51.530;11.754;2022-11-21T09:52:36;3.20;;;1.90;;
40074;SDS011;26529;51.530;11.754;2022-11-21T09:55:15;3.50;;;2.10;;
40074;SDS011;26529;51.530;11.754;2022-11-21T09:57:47;3.72;;;2.17;;
40074;SDS011;26529;51.530;11.754;2022-11-21T10:00:21;3.78;;;2.40;;
40074;SDS011;26529;51.530;11.754;2022-11-21T10:02:49;6.50;;;2.72;;
40074;SDS011;26529;51.530;11.754;2022-11-21T10:05:16;3.13;;;2.30;;
40074;SDS011;26529;51.530;11.754;2022-11-21T10:07:42;4.32;;;2.20;;
40074;SDS011;26529;51.530;11.754;2022-11-21T10:13:05;7.67;;;3.37;;
40074;SDS011;26529;51.530;11.754;2022-11-21T10:15:49;5.18;;;2.60;;
40074;SDS011;26529;51.530;11.754;2022-11-21T10:28:59;13.95;;;10.45;;
40074;SDS011;26529;51.530;11.754;2022-11-21T10:34:04;9.35;;;7.20;;
40074;SDS011;26529;51.530;11.754;2022-11-21T10:36:38;7.85;;;6.07;;
40074;SDS011;26529;51.530;11.754;2022-11-21T10:39:40;10.18;;;5.78;;
40074;SDS011;26529;51.530;11.754;2022-11-21T10:42:01;10.18;;;4.95;;
40074;SDS011;26529;51.530;11.754;2022-11-21T10:44:35;6.85;;;4.65;;
40074;SDS011;26529;51.530;11.754;2022-11-21T10:47:20;7.75;;;5.22;;
40074;SDS011;26529;51.530;11.754;2022-11-21T10:49:56;6.32;;;4.13;;
40074;SDS011;26529;51.530;11.754;2022-11-21T10:52:29;10.52;;;4.40;;
40074;SDS011;26529;51.530;11.754;2022-11-21T10:57:26;6.95;;;3.13;;
40074;SDS011;26529;51.530;11.754;2022-11-21T11:02:40;5.65;;;3.83;;
40074;SDS011;26529;51.530;11.754;2022-11-21T11:05:35;7.07;;;3.83;;
40074;SDS011;26529;51.530;11.754;2022-11-21T11:08:03;10.40;;;3.80;;
40074;SDS011;26529;51.530;11.754;2022-11-21T11:10:30;8.38;;;3.42;;
40074;SDS011;26529;51.530;11.754;2022-11-21T11:12:57;7.35;;;3.35;;
40074;SDS011;26529;51.530;11.754;2022-11-21T11:15:57;6.80;;;3.00;;
40074;SDS011;26529;51.530;11.754;2022-11-21T11:18:27;6.13;;;3.55;;
40074;SDS011;26529;51.530;11.754;2022-11-21T11:21:06;10.48;;;3.75;;
40074;SDS011;26529;51.530;11.754;2022-11-21T11:23:36;6.88;;;3.47;;
40074;SDS011;26529;51.530;11.754;2022-11-21T11:26:01;6.82;;;3.60;;
40074;SDS011;26529;51.530;11.754;2022-11-21T11:28:35;8.20;;;3.25;;
40074;SDS011;26529;51.530;11.754;2022-11-21T11:31:01;6.43;;;3.38;;
40074;SDS011;26529;51.530;11.754;2022-11-21T11:39:03;5.15;;;2.88;;
40074;SDS011;26529;51.530;11.754;2022-11-21T11:47:58;4.70;;;3.20;;
40074;SDS011;26529;51.530;11.754;2022-11-21T11:50:31;4.38;;;3.17;;
40074;SDS011;26529;51.530;11.754;2022-11-21T11:55:45;5.93;;;3.03;;
40074;SDS011;26529;51.530;11.754;2022-11-21T12:00:47;6.90;;;3.50;;
40074;SDS011;26529;51.530;11.754;2022-11-21T12:03:20;5.38;;;3.25;;
40074;SDS011;26529;51.530;11.754;2022-11-21T12:06:04;8.00;;;3.30;;
40074;SDS011;26529;51.530;11.754;2022-11-21T12:08:42;5.03;;;3.33;;
40074;SDS011;26529;51.530;11.754;2022-11-21T12:11:21;5.10;;;3.10;;
40074;SDS011;26529;51.530;11.754;2022-11-21T12:14:16;5.95;;;3.10;;
40074;SDS011;26529;51.530;11.754;2022-11-21T12:17:07;4.32;;;3.33;;
40074;SDS011;26529;51.530;11.754;2022-11-21T12:19:35;7.20;;;3.30;;
40074;SDS011;26529;51.530;11.754;2022-11-21T12:22:01;8.02;;;2.90;;
40074;SDS011;26529;51.530;11.754;2022-11-21T12:24:31;9.13;;;2.55;;
40074;SDS011;26529;51.530;11.754;2022-11-21T12:27:03;4.38;;;2.55;;
40074;SDS011;26529;51.530;11.754;2022-11-21T12:32:36;4.88;;;2.90;;
40074;SDS011;26529;51.530;11.754;2022-11-21T12:50:16;6.80;;;3.00;;
40074;SDS011;26529;51.530;11.754;2022-11-21T12:53:32;9.85;;;3.90;;
40074;SDS011;26529;51.530;11.754;2022-11-21T12:56:36;7.30;;;3.55;;
40074;SDS011;26529;51.530;11.754;2022-11-21T12:59:06;7.82;;;3.58;;
40074;SDS011;26529;51.530;11.754;2022-11-21T13:01:38;8.98;;;4.05;;
40074;SDS011;26529;51.530;11.754;2022-11-21T13:04:17;8.15;;;3.53;;
40074;SDS011;26529;51.530;11.754;2022-11-21T13:06:49;6.70;;;3.20;;
40074;SDS011;26529;51.530;11.754;2022-11-21T13:09:18;7.40;;;3.47;;
40074;SDS011;26529;51.530;11.754;2022-11-21T13:11:52;9.70;;;3.22;;
40074;SDS011;26529;51.530;11.754;2022-11-21T13:25:33;4.03;;;2.80;;
40074;SDS011;26529;51.530;11.754;2022-11-21T13:33:22;6.03;;;3.30;;
40074;SDS011;26529;51.530;11.754;2022-11-21T13:36:12;4.00;;;3.30;;
40074;SDS011;26529;51.530;11.754;2022-11-21T13:46:59;4.43;;;3.47;;
40074;SDS011;26529;51.530;11.754;2022-11-21T14:00:36;6.28;;;3.85;;
40074;SDS011;26529;51.530;11.754;2022-11-21T14:09:05;6.25;;;4.47;;
40074;SDS011;26529;51.530;11.754;2022-11-21T14:11:47;5.70;;;3.80;;
40074;SDS011;26529;51.530;11.754;2022-11-21T14:14:27;8.48;;;4.13;;
40074;SDS011;26529;51.530;11.754;2022-11-21T14:19:50;7.50;;;3.88;;
40074;SDS011;26529;51.530;11.754;2022-11-21T14:23:02;5.32;;;3.70;;
40074;SDS011;26529;51.530;11.754;2022-11-21T14:25:06;5.15;;;3.75;;
40074;SDS011;26529;51.530;11.754;2022-11-21T14:27:36;9.60;;;3.75;;
40074;SDS011;26529;51.530;11.754;2022-11-21T14:30:03;5.55;;;3.92;;
40074;SDS011;26529;51.530;11.754;2022-11-21T14:32:29;8.85;;;4.18;;
40074;SDS011;26529;51.530;11.754;2022-11-21T14:35:08;6.05;;;3.53;;
40074;SDS011;26529;51.530;11.754;2022-11-21T14:37:42;6.18;;;3.83;;
40074;SDS011;26529;51.530;11.754;2022-11-21T14:40:12;7.38;;;3.65;;
40074;SDS011;26529;51.530;11.754;2022-11-21T14:42:38;5.80;;;3.80;;
40074;SDS011;26529;51.530;11.754;2022-11-21T14:45:04;7.55;;;3.70;;
40074;SDS011;26529;51.530;11.754;2022-11-21T14:47:50;12.88;;;4.30;;
40074;SDS011;26529;51.530;11.754;2022-11-21T14:50:28;7.95;;;3.28;;
40074;SDS011;26529;51.530;11.754;2022-11-21T14:52:55;7.10;;;4.15;;
40074;SDS011;26529;51.530;11.754;2022-11-21T14:55:28;6.20;;;3.80;;
40074;SDS011;26529;51.530;11.754;2022-11-21T14:57:56;6.00;;;3.50;;
40074;SDS011;26529;51.530;11.754;2022-11-21T15:00:26;5.70;;;3.88;;
40074;SDS011;26529;51.530;11.754;2022-11-21T15:02:54;10.90;;;4.28;;
40074;SDS011;26529;51.530;11.754;2022-11-21T15:05:28;4.80;;;3.78;;
40074;SDS011;26529;51.530;11.754;2022-11-21T15:07:58;6.30;;;3.78;;
40074;SDS011;26529;51.530;11.754;2022-11-21T15:10:28;7.28;;;4.22;;
40074;SDS011;26529;51.530;11.754;2022-11-21T15:15:33;11.48;;;3.70;;
40074;SDS011;26529;51.530;11.754;2022-11-21T15:18:06;6.88;;;4.20;;
40074;SDS011;26529;51.530;11.754;2022-11-21T15:20:42;8.52;;;4.75;;
40074;SDS011;26529;51.530;11.754;2022-11-21T15:23:31;4.47;;;3.67;;
40074;SDS011;26529;51.530;11.754;2022-11-21T15:25:58;6.05;;;3.42;;
40074;SDS011;26529;51.530;11.754;2022-11-21T15:28:25;7.25;;;4.18;;
40074;SDS011;26529;51.530;11.754;2022-11-21T15:36:19;5.22;;;3.75;;
40074;SDS011;26529;51.530;11.754;2022-11-21T15:38:52;4.78;;;4.13;;
40074;SDS011;26529;51.530;11.754;2022-11-21T15:41:25;4.82;;;3.90;;
40074;SDS011;26529;51.530;11.754;2022-11-21T15:46:36;8.68;;;4.22;;
40074;SDS011;26529;51.530;11.754;2022-11-21T15:49:07;6.22;;;4.45;;
40074;SDS011;26529;51.530;11.754;2022-11-21T15:54:01;7.07;;;4.40;;
40074;SDS011;26529;51.530;11.754;2022-11-21T15:56:27;8.05;;;4.88;;
40074;SDS011;26529;51.530;11.754;2022-11-21T15:58:53;5.78;;;4.45;;
40074;SDS011;26529;51.530;11.754;2022-11-21T16:01:20;6.22;;;3.70;;
40074;SDS011;26529;51.530;11.754;2022-11-21T16:03:48;7.68;;;3.92;;
40074;SDS011;26529;51.530;11.754;2022-11-21T16:06:15;6.85;;;4.00;;
40074;SDS011;26529;51.530;11.754;2022-11-21T16:08:41;6.10;;;3.80;;
40074;SDS011;26529;51.530;11.754;2022-11-21T16:11:11;5.72;;;4.22;;
40074;SDS011;26529;51.530;11.754;2022-11-21T16:13:42;6.90;;;4.20;;
40074;SDS011;26529;51.530;11.754;2022-11-21T16:16:10;7.40;;;3.83;;
40074;SDS011;26529;51.530;11.754;2022-11-21T16:18:36;5.93;;;3.85;;
40074;SDS011;26529;51.530;11.754;2022-11-21T16:21:05;6.30;;;3.70;;
40074;SDS011;26529;51.530;11.754;2022-11-21T16:23:31;5.53;;;4.15;;
40074;SDS011;26529;51.530;11.754;2022-11-21T16:25:57;6.75;;;4.55;;
40074;SDS011;26529;51.530;11.754;2022-11-21T16:28:23;6.18;;;3.80;;
40074;SDS011;26529;51.530;11.754;2022-11-21T16:30:48;5.40;;;3.95;;
40074;SDS011;26529;51.530;11.754;2022-11-21T16:33:14;6.82;;;4.72;;
40074;SDS011;26529;51.530;11.754;2022-11-21T16:35:40;7.20;;;4.93;;
40074;SDS011;26529;51.530;11.754;2022-11-21T16:38:06;5.28;;;4.32;;
40074;SDS011;26529;51.530;11.754;2022-11-21T16:40:33;7.03;;;3.70;;
40074;SDS011;26529;51.530;11.754;2022-11-21T16:43:05;5.00;;;3.92;;
40074;SDS011;26529;51.530;11.754;2022-11-21T16:45:37;6.13;;;3.95;;
40074;SDS011;26529;51.530;11.754;2022-11-21T16:48:04;5.93;;;4.45;;
40074;SDS011;26529;51.530;11.754;2022-11-21T16:50:30;7.05;;;4.72;;
40074;SDS011;26529;51.530;11.754;2022-11-21T16:52:56;6.25;;;4.35;;